sensor_id;sensor_type;location;lat;lon;timestamp;P1;durP1;ratioP1;P2;durP2;ratioP2
31584;SDS011;18191;51.288;12.390;2023-07-30T00:01:46;4.32;;;2.20;;
31584;SDS011;18191;51.288;12.390;2023-07-30T00:06:36;14.27;;;3.13;;
31584;SDS011;18191;51.288;12.390;2023-07-30T00:16:17;4.93;;;2.45;;
31584;SDS011;18191;51.288;12.390;2023-07-30T00:21:07;4.35;;;2.50;;
31584;SDS011;18191;51.288;12.390;2023-07-30T00:30:48;5.57;;;2.33;;
31584;SDS011;18191;51.288;12.390;2023-07-30T00:35:38;6.75;;;2.25;;
31584;SDS011;18191;51.288;12.390;2023-07-30T00:45:18;6.45;;;2.80;;
31584;SDS011;18191;51.288;12.390;2023-07-30T00:55:02;15.90;;;2.53;;
31584;SDS011;18191;51.288;12.390;2023-07-30T00:59:53;7.40;;;2.47;;
31584;SDS011;18191;51.288;12.390;2023-07-30T01:04:43;8.32;;;2.70;;
31584;SDS011;18191;51.288;12.390;2023-07-30T01:09:39;10.48;;;2.75;;
31584;SDS011;18191;51.288;12.390;2023-07-30T01:14:30;8.18;;;3.08;;
31584;SDS011;18191;51.288;12.390;2023-07-30T01:19:21;5.97;;;2.65;;
31584;SDS011;18191;51.288;12.390;2023-07-30T01:24:11;10.98;;;2.92;;
31584;SDS011;18191;51.288;12.390;2023-07-30T01:29:01;10.13;;;2.60;;
31584;SDS011;18191;51.288;12.390;2023-07-30T01:33:56;12.05;;;2.95;;
31584;SDS011;18191;51.288;12.390;2023-07-30T01:38:49;5.25;;;2.50;;
31584;SDS011;18191;51.288;12.390;2023-07-30T01:43:40;5.93;;;2.90;;
31584;SDS011;18191;51.288;12.390;2023-07-30T01:53:21;5.93;;;2.70;;
31584;SDS011;18191;51.288;12.390;2023-07-30T02:03:03;13.32;;;2.90;;
31584;SDS011;18191;51.288;12.390;2023-07-30T02:07:53;8.23;;;2.65;;
31584;SDS011;18191;51.288;12.390;2023-07-30T02:17:33;4.80;;;2.55;;
31584;SDS011;18191;51.288;12.390;2023-07-30T02:22:24;6.87;;;1.93;;
31584;SDS011;18191;51.288;12.390;2023-07-30T02:27:14;4.07;;;2.75;;
31584;SDS011;18191;51.288;12.390;2023-07-30T02:36:55;4.67;;;2.60;;
31584;SDS011;18191;51.288;12.390;2023-07-30T02:41:45;9.32;;;2.30;;
31584;SDS011;18191;51.288;12.390;2023-07-30T02:46:36;10.27;;;2.60;;
31584;SDS011;18191;51.288;12.390;2023-07-30T02:51:26;9.40;;;2.03;;
31584;SDS011;18191;51.288;12.390;2023-07-30T02:56:16;6.10;;;2.70;;
31584;SDS011;18191;51.288;12.390;2023-07-30T03:01:07;5.32;;;2.05;;
31584;SDS011;18191;51.288;12.390;2023-07-30T03:05:58;6.68;;;3.05;;
31584;SDS011;18191;51.288;12.390;2023-07-30T03:10:48;5.22;;;2.65;;
31584;SDS011;18191;51.288;12.390;2023-07-30T03:15:38;13.60;;;2.40;;
31584;SDS011;18191;51.288;12.390;2023-07-30T03:20:29;4.57;;;2.38;;
31584;SDS011;18191;51.288;12.390;2023-07-30T03:25:19;6.28;;;2.40;;
31584;SDS011;18191;51.288;12.390;2023-07-30T03:30:09;7.43;;;2.63;;
31584;SDS011;18191;51.288;12.390;2023-07-30T03:35:00;11.48;;;2.45;;
31584;SDS011;18191;51.288;12.390;2023-07-30T03:39:50;6.90;;;2.95;;
31584;SDS011;18191;51.288;12.390;2023-07-30T03:44:41;5.70;;;3.03;;
31584;SDS011;18191;51.288;12.390;2023-07-30T03:49:31;9.20;;;2.30;;
31584;SDS011;18191;51.288;12.390;2023-07-30T03:54:21;7.72;;;2.30;;
31584;SDS011;18191;51.288;12.390;2023-07-30T03:59:11;7.15;;;2.25;;
31584;SDS011;18191;51.288;12.390;2023-07-30T04:04:02;9.52;;;2.45;;
31584;SDS011;18191;51.288;12.390;2023-07-30T04:08:52;10.97;;;2.37;;
31584;SDS011;18191;51.288;12.390;2023-07-30T04:13:42;7.25;;;2.78;;
31584;SDS011;18191;51.288;12.390;2023-07-30T04:18:33;7.60;;;2.65;;
31584;SDS011;18191;51.288;12.390;2023-07-30T04:23:23;13.88;;;2.28;;
31584;SDS011;18191;51.288;12.390;2023-07-30T04:28:14;6.88;;;2.75;;
31584;SDS011;18191;51.288;12.390;2023-07-30T04:33:04;4.68;;;2.17;;
31584;SDS011;18191;51.288;12.390;2023-07-30T04:37:54;4.57;;;2.45;;
31584;SDS011;18191;51.288;12.390;2023-07-30T04:42:45;7.22;;;3.33;;
31584;SDS011;18191;51.288;12.390;2023-07-30T04:47:36;5.53;;;2.22;;
31584;SDS011;18191;51.288;12.390;2023-07-30T04:52:26;8.13;;;2.10;;
31584;SDS011;18191;51.288;12.390;2023-07-30T04:57:16;7.13;;;2.55;;
31584;SDS011;18191;51.288;12.390;2023-07-30T05:02:06;9.77;;;2.47;;
31584;SDS011;18191;51.288;12.390;2023-07-30T05:06:57;7.97;;;2.25;;
31584;SDS011;18191;51.288;12.390;2023-07-30T05:11:47;2.78;;;1.90;;
31584;SDS011;18191;51.288;12.390;2023-07-30T05:16:38;16.00;;;3.22;;
31584;SDS011;18191;51.288;12.390;2023-07-30T05:21:28;7.32;;;2.55;;
31584;SDS011;18191;51.288;12.390;2023-07-30T05:26:18;6.60;;;3.35;;
31584;SDS011;18191;51.288;12.390;2023-07-30T05:31:09;4.15;;;2.42;;
31584;SDS011;18191;51.288;12.390;2023-07-30T05:35:59;10.80;;;2.75;;
31584;SDS011;18191;51.288;12.390;2023-07-30T05:40:49;8.38;;;2.35;;
31584;SDS011;18191;51.288;12.390;2023-07-30T05:45:40;6.28;;;1.98;;
31584;SDS011;18191;51.288;12.390;2023-07-30T05:50:30;4.07;;;2.60;;
31584;SDS011;18191;51.288;12.390;2023-07-30T05:55:21;17.73;;;3.10;;
31584;SDS011;18191;51.288;12.390;2023-07-30T06:00:11;5.07;;;2.75;;
31584;SDS011;18191;51.288;12.390;2023-07-30T06:05:01;5.97;;;2.13;;
31584;SDS011;18191;51.288;12.390;2023-07-30T06:09:52;5.80;;;2.40;;
31584;SDS011;18191;51.288;12.390;2023-07-30T06:14:42;5.30;;;2.30;;
31584;SDS011;18191;51.288;12.390;2023-07-30T06:19:32;8.85;;;2.28;;
31584;SDS011;18191;51.288;12.390;2023-07-30T06:24:23;5.00;;;2.22;;
31584;SDS011;18191;51.288;12.390;2023-07-30T06:29:13;9.32;;;2.08;;
31584;SDS011;18191;51.288;12.390;2023-07-30T06:34:03;13.05;;;2.03;;
31584;SDS011;18191;51.288;12.390;2023-07-30T06:38:53;4.30;;;2.38;;
31584;SDS011;18191;51.288;12.390;2023-07-30T06:43:44;3.23;;;1.90;;
31584;SDS011;18191;51.288;12.390;2023-07-30T06:48:34;4.75;;;2.13;;
31584;SDS011;18191;51.288;12.390;2023-07-30T06:53:24;11.40;;;2.35;;
31584;SDS011;18191;51.288;12.390;2023-07-30T06:58:15;4.45;;;2.10;;
31584;SDS011;18191;51.288;12.390;2023-07-30T07:03:05;3.60;;;2.20;;
31584;SDS011;18191;51.288;12.390;2023-07-30T07:07:55;14.18;;;2.50;;
31584;SDS011;18191;51.288;12.390;2023-07-30T07:12:46;4.22;;;1.83;;
31584;SDS011;18191;51.288;12.390;2023-07-30T07:17:37;7.93;;;2.80;;
31584;SDS011;18191;51.288;12.390;2023-07-30T07:22:27;4.93;;;2.65;;
31584;SDS011;18191;51.288;12.390;2023-07-30T07:27:17;5.03;;;2.00;;
31584;SDS011;18191;51.288;12.390;2023-07-30T07:32:11;6.30;;;1.92;;
31584;SDS011;18191;51.288;12.390;2023-07-30T07:37:01;3.25;;;2.50;;
31584;SDS011;18191;51.288;12.390;2023-07-30T07:41:52;3.20;;;2.03;;
31584;SDS011;18191;51.288;12.390;2023-07-30T07:46:43;4.35;;;2.13;;
31584;SDS011;18191;51.288;12.390;2023-07-30T07:51:33;5.95;;;2.17;;
31584;SDS011;18191;51.288;12.390;2023-07-30T07:56:23;10.25;;;2.95;;
31584;SDS011;18191;51.288;12.390;2023-07-30T08:01:13;8.88;;;2.08;;
31584;SDS011;18191;51.288;12.390;2023-07-30T08:06:05;15.45;;;3.58;;
31584;SDS011;18191;51.288;12.390;2023-07-30T08:10:55;7.88;;;2.30;;
31584;SDS011;18191;51.288;12.390;2023-07-30T08:15:46;6.07;;;2.08;;
31584;SDS011;18191;51.288;12.390;2023-07-30T08:20:36;9.32;;;2.83;;
31584;SDS011;18191;51.288;12.390;2023-07-30T08:25:26;3.58;;;2.42;;
31584;SDS011;18191;51.288;12.390;2023-07-30T08:30:17;9.55;;;2.30;;
31584;SDS011;18191;51.288;12.390;2023-07-30T08:35:07;8.30;;;2.10;;
31584;SDS011;18191;51.288;12.390;2023-07-30T08:39:58;5.43;;;2.33;;
31584;SDS011;18191;51.288;12.390;2023-07-30T08:44:48;7.10;;;2.55;;
31584;SDS011;18191;51.288;12.390;2023-07-30T08:49:38;3.50;;;2.05;;
31584;SDS011;18191;51.288;12.390;2023-07-30T08:54:30;3.55;;;2.28;;
31584;SDS011;18191;51.288;12.390;2023-07-30T08:59:21;3.50;;;1.95;;
31584;SDS011;18191;51.288;12.390;2023-07-30T09:04:14;10.85;;;2.55;;
31584;SDS011;18191;51.288;12.390;2023-07-30T09:09:07;8.98;;;2.10;;
31584;SDS011;18191;51.288;12.390;2023-07-30T09:14:00;6.22;;;1.95;;
31584;SDS011;18191;51.288;12.390;2023-07-30T09:18:51;4.05;;;2.00;;
31584;SDS011;18191;51.288;12.390;2023-07-30T09:23:44;4.45;;;1.60;;
31584;SDS011;18191;51.288;12.390;2023-07-30T09:28:38;3.35;;;1.67;;
31584;SDS011;18191;51.288;12.390;2023-07-30T09:33:33;2.60;;;1.45;;
31584;SDS011;18191;51.288;12.390;2023-07-30T09:38:24;4.03;;;1.80;;
31584;SDS011;18191;51.288;12.390;2023-07-30T09:43:15;1.98;;;1.55;;
31584;SDS011;18191;51.288;12.390;2023-07-30T09:48:06;4.50;;;1.20;;
31584;SDS011;18191;51.288;12.390;2023-07-30T09:57:48;2.03;;;1.65;;
31584;SDS011;18191;51.288;12.390;2023-07-30T10:02:39;2.07;;;1.43;;
31584;SDS011;18191;51.288;12.390;2023-07-30T10:07:32;3.00;;;1.48;;
31584;SDS011;18191;51.288;12.390;2023-07-30T10:12:25;3.28;;;1.00;;
31584;SDS011;18191;51.288;12.390;2023-07-30T10:17:20;4.35;;;1.15;;
31584;SDS011;18191;51.288;12.390;2023-07-30T10:27:05;2.75;;;1.40;;
31584;SDS011;18191;51.288;12.390;2023-07-30T10:31:56;1.73;;;1.20;;
31584;SDS011;18191;51.288;12.390;2023-07-30T10:36:48;1.65;;;0.98;;
31584;SDS011;18191;51.288;12.390;2023-07-30T10:41:39;3.00;;;1.40;;
31584;SDS011;18191;51.288;12.390;2023-07-30T10:46:30;4.40;;;1.02;;
31584;SDS011;18191;51.288;12.390;2023-07-30T10:51:21;1.87;;;1.00;;
31584;SDS011;18191;51.288;12.390;2023-07-30T10:56:13;2.90;;;0.70;;
31584;SDS011;18191;51.288;12.390;2023-07-30T11:01:06;3.05;;;1.13;;
31584;SDS011;18191;51.288;12.390;2023-07-30T11:05:57;2.58;;;1.13;;
31584;SDS011;18191;51.288;12.390;2023-07-30T11:10:48;1.10;;;0.70;;
31584;SDS011;18191;51.288;12.390;2023-07-30T11:15:44;1.90;;;0.80;;
31584;SDS011;18191;51.288;12.390;2023-07-30T11:20:35;9.73;;;0.90;;
31584;SDS011;18191;51.288;12.390;2023-07-30T11:25:26;1.50;;;0.98;;
31584;SDS011;18191;51.288;12.390;2023-07-30T11:30:17;0.75;;;0.65;;
31584;SDS011;18191;51.288;12.390;2023-07-30T11:35:08;3.92;;;0.90;;
31584;SDS011;18191;51.288;12.390;2023-07-30T11:39:59;8.20;;;1.08;;
31584;SDS011;18191;51.288;12.390;2023-07-30T11:44:50;1.70;;;0.82;;
31584;SDS011;18191;51.288;12.390;2023-07-30T11:49:41;8.82;;;0.90;;
31584;SDS011;18191;51.288;12.390;2023-07-30T11:54:38;3.07;;;0.97;;
31584;SDS011;18191;51.288;12.390;2023-07-30T11:59:30;2.75;;;0.93;;
31584;SDS011;18191;51.288;12.390;2023-07-30T12:04:20;12.32;;;1.70;;
31584;SDS011;18191;51.288;12.390;2023-07-30T12:09:14;2.83;;;0.90;;
31584;SDS011;18191;51.288;12.390;2023-07-30T12:14:09;2.15;;;1.08;;
31584;SDS011;18191;51.288;12.390;2023-07-30T12:19:00;9.82;;;1.10;;
31584;SDS011;18191;51.288;12.390;2023-07-30T12:23:50;2.83;;;1.10;;
31584;SDS011;18191;51.288;12.390;2023-07-30T12:28:40;2.78;;;0.90;;
31584;SDS011;18191;51.288;12.390;2023-07-30T12:33:31;2.83;;;1.10;;
31584;SDS011;18191;51.288;12.390;2023-07-30T12:38:21;4.50;;;1.10;;
31584;SDS011;18191;51.288;12.390;2023-07-30T12:43:11;1.60;;;0.90;;
31584;SDS011;18191;51.288;12.390;2023-07-30T12:48:01;1.33;;;0.90;;
31584;SDS011;18191;51.288;12.390;2023-07-30T12:52:52;1.83;;;1.20;;
31584;SDS011;18191;51.288;12.390;2023-07-30T12:57:42;3.53;;;1.30;;
31584;SDS011;18191;51.288;12.390;2023-07-30T13:02:33;2.33;;;1.07;;
31584;SDS011;18191;51.288;12.390;2023-07-30T13:07:24;16.00;;;1.77;;
31584;SDS011;18191;51.288;12.390;2023-07-30T13:12:14;4.00;;;1.73;;
31584;SDS011;18191;51.288;12.390;2023-07-30T13:17:05;5.20;;;1.42;;
31584;SDS011;18191;51.288;12.390;2023-07-30T13:21:55;7.23;;;1.43;;
31584;SDS011;18191;51.288;12.390;2023-07-30T13:26:45;10.50;;;1.80;;
31584;SDS011;18191;51.288;12.390;2023-07-30T13:31:36;3.50;;;2.42;;
31584;SDS011;18191;51.288;12.390;2023-07-30T13:36:26;2.67;;;1.70;;
31584;SDS011;18191;51.288;12.390;2023-07-30T13:41:16;3.33;;;1.98;;
31584;SDS011;18191;51.288;12.390;2023-07-30T13:46:06;4.80;;;2.30;;
31584;SDS011;18191;51.288;12.390;2023-07-30T13:50:57;5.30;;;1.93;;
31584;SDS011;18191;51.288;12.390;2023-07-30T13:55:47;5.68;;;2.13;;
31584;SDS011;18191;51.288;12.390;2023-07-30T14:00:40;5.80;;;2.60;;
31584;SDS011;18191;51.288;12.390;2023-07-30T14:05:31;6.10;;;2.13;;
31584;SDS011;18191;51.288;12.390;2023-07-30T14:10:21;8.13;;;2.65;;
31584;SDS011;18191;51.288;12.390;2023-07-30T14:15:15;5.95;;;2.20;;
31584;SDS011;18191;51.288;12.390;2023-07-30T14:20:06;5.93;;;2.08;;
31584;SDS011;18191;51.288;12.390;2023-07-30T14:24:56;5.28;;;2.30;;
31584;SDS011;18191;51.288;12.390;2023-07-30T14:29:48;3.92;;;2.50;;
31584;SDS011;18191;51.288;12.390;2023-07-30T14:34:38;5.28;;;2.17;;
31584;SDS011;18191;51.288;12.390;2023-07-30T14:39:29;4.07;;;1.58;;
31584;SDS011;18191;51.288;12.390;2023-07-30T14:44:19;6.97;;;1.70;;
31584;SDS011;18191;51.288;12.390;2023-07-30T14:49:09;5.70;;;1.70;;
31584;SDS011;18191;51.288;12.390;2023-07-30T14:54:00;3.47;;;2.08;;
31584;SDS011;18191;51.288;12.390;2023-07-30T14:58:50;5.45;;;1.88;;
31584;SDS011;18191;51.288;12.390;2023-07-30T15:03:40;7.65;;;2.50;;
31584;SDS011;18191;51.288;12.390;2023-07-30T15:08:31;6.07;;;2.65;;
31584;SDS011;18191;51.288;12.390;2023-07-30T15:13:22;8.02;;;2.50;;
31584;SDS011;18191;51.288;12.390;2023-07-30T15:18:15;11.25;;;2.30;;
31584;SDS011;18191;51.288;12.390;2023-07-30T15:23:05;6.03;;;1.87;;
31584;SDS011;18191;51.288;12.390;2023-07-30T15:27:55;9.80;;;2.90;;
31584;SDS011;18191;51.288;12.390;2023-07-30T15:32:48;10.27;;;3.17;;
31584;SDS011;18191;51.288;12.390;2023-07-30T15:37:38;14.25;;;2.97;;
31584;SDS011;18191;51.288;12.390;2023-07-30T15:42:28;9.85;;;3.00;;
31584;SDS011;18191;51.288;12.390;2023-07-30T15:47:18;6.95;;;2.70;;
31584;SDS011;18191;51.288;12.390;2023-07-30T15:52:09;4.65;;;1.75;;
31584;SDS011;18191;51.288;12.390;2023-07-30T15:56:59;2.50;;;1.38;;
31584;SDS011;18191;51.288;12.390;2023-07-30T16:01:50;3.05;;;1.52;;
31584;SDS011;18191;51.288;12.390;2023-07-30T16:06:40;4.95;;;1.67;;
31584;SDS011;18191;51.288;12.390;2023-07-30T16:11:30;10.18;;;1.30;;
31584;SDS011;18191;51.288;12.390;2023-07-30T16:16:23;3.72;;;1.58;;
31584;SDS011;18191;51.288;12.390;2023-07-30T16:21:15;3.33;;;1.23;;
31584;SDS011;18191;51.288;12.390;2023-07-30T16:26:05;7.05;;;1.60;;
31584;SDS011;18191;51.288;12.390;2023-07-30T16:30:56;3.03;;;1.33;;
31584;SDS011;18191;51.288;12.390;2023-07-30T16:35:47;4.50;;;1.38;;
31584;SDS011;18191;51.288;12.390;2023-07-30T16:40:38;3.05;;;1.70;;
31584;SDS011;18191;51.288;12.390;2023-07-30T16:45:28;6.83;;;2.10;;
31584;SDS011;18191;51.288;12.390;2023-07-30T16:50:18;5.35;;;1.60;;
31584;SDS011;18191;51.288;12.390;2023-07-30T16:55:09;5.65;;;2.00;;
31584;SDS011;18191;51.288;12.390;2023-07-30T16:59:59;2.53;;;1.60;;
31584;SDS011;18191;51.288;12.390;2023-07-30T17:04:49;4.45;;;1.92;;
31584;SDS011;18191;51.288;12.390;2023-07-30T17:09:40;2.25;;;1.50;;
31584;SDS011;18191;51.288;12.390;2023-07-30T17:14:30;3.10;;;1.67;;
31584;SDS011;18191;51.288;12.390;2023-07-30T17:19:20;8.45;;;2.33;;
31584;SDS011;18191;51.288;12.390;2023-07-30T17:24:11;3.17;;;1.60;;
31584;SDS011;18191;51.288;12.390;2023-07-30T17:29:01;7.80;;;1.45;;
31584;SDS011;18191;51.288;12.390;2023-07-30T17:33:52;4.28;;;1.38;;
31584;SDS011;18191;51.288;12.390;2023-07-30T17:38:42;5.00;;;1.80;;
31584;SDS011;18191;51.288;12.390;2023-07-30T17:43:32;4.60;;;1.70;;
31584;SDS011;18191;51.288;12.390;2023-07-30T17:48:24;4.78;;;1.70;;
31584;SDS011;18191;51.288;12.390;2023-07-30T17:53:17;3.00;;;1.70;;
31584;SDS011;18191;51.288;12.390;2023-07-30T17:58:07;4.38;;;2.13;;
31584;SDS011;18191;51.288;12.390;2023-07-30T18:02:57;6.18;;;2.45;;
31584;SDS011;18191;51.288;12.390;2023-07-30T18:07:48;6.82;;;2.28;;
31584;SDS011;18191;51.288;12.390;2023-07-30T18:12:38;4.47;;;2.40;;
31584;SDS011;18191;51.288;12.390;2023-07-30T18:17:28;6.18;;;2.45;;
31584;SDS011;18191;51.288;12.390;2023-07-30T18:22:19;5.82;;;3.20;;
31584;SDS011;18191;51.288;12.390;2023-07-30T18:27:09;13.15;;;3.13;;
31584;SDS011;18191;51.288;12.390;2023-07-30T18:32:06;9.32;;;2.92;;
31584;SDS011;18191;51.288;12.390;2023-07-30T18:36:57;7.32;;;2.90;;
31584;SDS011;18191;51.288;12.390;2023-07-30T18:41:48;5.25;;;3.22;;
31584;SDS011;18191;51.288;12.390;2023-07-30T18:46:40;17.45;;;3.42;;
31584;SDS011;18191;51.288;12.390;2023-07-30T18:51:31;7.25;;;3.72;;
31584;SDS011;18191;51.288;12.390;2023-07-30T18:56:21;14.98;;;4.13;;
31584;SDS011;18191;51.288;12.390;2023-07-30T19:01:11;8.50;;;3.53;;
31584;SDS011;18191;51.288;12.390;2023-07-30T19:06:01;11.80;;;4.32;;
31584;SDS011;18191;51.288;12.390;2023-07-30T19:10:52;7.78;;;4.13;;
31584;SDS011;18191;51.288;12.390;2023-07-30T19:15:44;6.90;;;4.10;;
31584;SDS011;18191;51.288;12.390;2023-07-30T19:20:34;8.13;;;3.53;;
31584;SDS011;18191;51.288;12.390;2023-07-30T19:25:25;7.68;;;4.03;;
31584;SDS011;18191;51.288;12.390;2023-07-30T19:30:15;7.72;;;3.30;;
31584;SDS011;18191;51.288;12.390;2023-07-30T19:35:06;10.57;;;4.30;;
31584;SDS011;18191;51.288;12.390;2023-07-30T19:39:56;13.68;;;4.00;;
31584;SDS011;18191;51.288;12.390;2023-07-30T19:44:48;11.00;;;3.28;;
31584;SDS011;18191;51.288;12.390;2023-07-30T19:49:38;10.00;;;3.72;;
31584;SDS011;18191;51.288;12.390;2023-07-30T19:54:29;7.57;;;2.90;;
31584;SDS011;18191;51.288;12.390;2023-07-30T19:59:19;16.85;;;3.28;;
31584;SDS011;18191;51.288;12.390;2023-07-30T20:04:09;6.15;;;2.35;;
31584;SDS011;18191;51.288;12.390;2023-07-30T20:09:00;11.13;;;2.35;;
31584;SDS011;18191;51.288;12.390;2023-07-30T20:13:50;7.80;;;2.33;;
31584;SDS011;18191;51.288;12.390;2023-07-30T20:18:40;10.63;;;1.80;;
31584;SDS011;18191;51.288;12.390;2023-07-30T20:23:30;6.10;;;1.40;;
31584;SDS011;18191;51.288;12.390;2023-07-30T20:28:21;15.00;;;2.33;;
31584;SDS011;18191;51.288;12.390;2023-07-30T20:33:11;4.38;;;1.77;;
31584;SDS011;18191;51.288;12.390;2023-07-30T20:38:01;6.28;;;1.80;;
31584;SDS011;18191;51.288;12.390;2023-07-30T20:42:52;8.57;;;1.50;;
31584;SDS011;18191;51.288;12.390;2023-07-30T20:47:43;3.33;;;1.40;;
31584;SDS011;18191;51.288;12.390;2023-07-30T20:52:33;7.25;;;2.50;;
31584;SDS011;18191;51.288;12.390;2023-07-30T20:57:23;7.78;;;1.58;;
31584;SDS011;18191;51.288;12.390;2023-07-30T21:02:13;16.50;;;1.73;;
31584;SDS011;18191;51.288;12.390;2023-07-30T21:11:54;4.77;;;1.63;;
31584;SDS011;18191;51.288;12.390;2023-07-30T21:16:44;10.82;;;1.67;;
31584;SDS011;18191;51.288;12.390;2023-07-30T21:26:25;13.43;;;1.83;;
31584;SDS011;18191;51.288;12.390;2023-07-30T21:31:16;5.20;;;1.48;;
31584;SDS011;18191;51.288;12.390;2023-07-30T21:36:06;3.77;;;1.83;;
31584;SDS011;18191;51.288;12.390;2023-07-30T21:40:56;6.50;;;2.10;;
31584;SDS011;18191;51.288;12.390;2023-07-30T21:45:53;9.38;;;2.10;;
31584;SDS011;18191;51.288;12.390;2023-07-30T21:50:44;7.88;;;1.90;;
31584;SDS011;18191;51.288;12.390;2023-07-30T22:00:24;5.07;;;1.75;;
31584;SDS011;18191;51.288;12.390;2023-07-30T22:05:15;6.95;;;1.58;;
31584;SDS011;18191;51.288;12.390;2023-07-30T22:14:55;4.82;;;1.58;;
31584;SDS011;18191;51.288;12.390;2023-07-30T22:24:36;2.95;;;1.52;;
31584;SDS011;18191;51.288;12.390;2023-07-30T22:29:26;2.78;;;1.65;;
31584;SDS011;18191;51.288;12.390;2023-07-30T22:34:16;12.47;;;2.17;;
31584;SDS011;18191;51.288;12.390;2023-07-30T22:39:07;7.32;;;1.70;;
31584;SDS011;18191;51.288;12.390;2023-07-30T22:43:57;4.95;;;2.10;;
31584;SDS011;18191;51.288;12.390;2023-07-30T22:48:48;10.65;;;2.58;;
31584;SDS011;18191;51.288;12.390;2023-07-30T22:53:39;3.95;;;1.63;;
31584;SDS011;18191;51.288;12.390;2023-07-30T22:58:29;11.65;;;1.85;;
31584;SDS011;18191;51.288;12.390;2023-07-30T23:03:19;2.28;;;1.40;;
31584;SDS011;18191;51.288;12.390;2023-07-30T23:08:09;4.38;;;1.40;;
31584;SDS011;18191;51.288;12.390;2023-07-30T23:13:00;10.10;;;2.38;;
31584;SDS011;18191;51.288;12.390;2023-07-30T23:17:53;5.15;;;1.60;;
31584;SDS011;18191;51.288;12.390;2023-07-30T23:22:44;12.23;;;1.85;;
31584;SDS011;18191;51.288;12.390;2023-07-30T23:27:34;10.38;;;2.28;;
31584;SDS011;18191;51.288;12.390;2023-07-30T23:32:25;4.50;;;1.67;;
31584;SDS011;18191;51.288;12.390;2023-07-30T23:42:05;8.15;;;1.83;;
31584;SDS011;18191;51.288;12.390;2023-07-30T23:46:56;8.40;;;2.92;;
31584;SDS011;18191;51.288;12.390;2023-07-30T23:51:46;16.00;;;2.90;;
